Time;durP1;ratioP1;P1;durP2;ratioP2;P2;SDS_P1;SDS_P2;PMS_P1;PMS_P2;Temp;Humidity;BMP_temperature;BMP_pressure;BME280_temperature;BME280_humidity;BME280_pressure;Samples;Min_cycle;Max_cycle;Signal;HPM_P1;HPM_P2
2022/12/23 00:01:00;;;;;;;24.60;12.45;;;;;;;;;;5013839;28;20068;-68
2022/12/23 00:03:27;;;;;;;33.40;14.05;;;;;;;;;;5013886;28;20473;-66
2022/12/23 00:05:53;;;;;;;28.60;12.93;;;;;;;;;;5013609;28;20469;-66
2022/12/23 00:08:19;;;;;;;30.42;14.85;;;;;;;;;;5013452;28;20030;-66
2022/12/23 00:10:47;;;;;;;31.70;15.15;;;;;;;;;;5013565;28;20381;-66
2022/12/23 00:16:09;;;;;;;30.48;13.35;;;;;;;;;;4994146;28;20092;-67
2022/12/23 00:18:35;;;;;;;31.70;15.23;;;;;;;;;;4993950;28;20029;-66
2022/12/23 00:21:03;;;;;;;30.58;14.52;;;;;;;;;;4993798;28;20030;-68
2022/12/23 00:23:32;;;;;;;32.13;14.20;;;;;;;;;;4993382;28;20034;-68
2022/12/23 00:25:57;;;;;;;30.25;14.35;;;;;;;;;;5004724;28;20080;-67
2022/12/23 00:28:24;;;;;;;28.65;13.82;;;;;;;;;;5013700;28;20073;-68
2022/12/23 00:30:52;;;;;;;24.20;12.00;;;;;;;;;;5013711;28;20022;-67
2022/12/23 00:33:20;;;;;;;26.95;13.30;;;;;;;;;;5008653;28;20027;-66
2022/12/23 00:35:46;;;;;;;25.02;12.45;;;;;;;;;;4993031;28;20023;-68
2022/12/23 00:38:12;;;;;;;28.98;12.45;;;;;;;;;;4990320;28;20030;-67
2022/12/23 00:43:21;;;;;;;33.60;13.00;;;;;;;;;;4991967;28;20029;-68
2022/12/23 00:45:47;;;;;;;22.80;11.73;;;;;;;;;;4991489;28;20022;-66
2022/12/23 00:50:57;;;;;;;24.75;12.23;;;;;;;;;;4991333;28;20088;-67
2022/12/23 00:53:22;;;;;;;26.90;13.45;;;;;;;;;;4992706;28;20117;-67
2022/12/23 00:55:49;;;;;;;22.92;12.07;;;;;;;;;;4992739;28;20022;-67
2022/12/23 00:58:18;;;;;;;27.63;12.50;;;;;;;;;;4992864;28;20172;-68
2022/12/23 01:06:13;;;;;;;24.90;13.10;;;;;;;;;;4990445;28;20032;-68
2022/12/23 01:08:38;;;;;;;26.50;12.45;;;;;;;;;;4992647;28;20480;-68
2022/12/23 01:11:06;;;;;;;28.95;13.38;;;;;;;;;;4992777;28;20030;-68
2022/12/23 01:13:32;;;;;;;25.88;13.25;;;;;;;;;;4994628;28;20073;-68
2022/12/23 01:16:07;;;;;;;30.40;12.48;;;;;;;;;;4992731;28;20050;-66
2022/12/23 01:18:33;;;;;;;24.60;13.07;;;;;;;;;;4990172;28;20026;-68
2022/12/23 01:21:04;;;;;;;25.40;13.30;;;;;;;;;;4992895;28;20022;-68
2022/12/23 01:23:30;;;;;;;27.08;14.07;;;;;;;;;;4992928;28;20448;-67
2022/12/23 01:26:00;;;;;;;25.55;13.02;;;;;;;;;;4997559;28;20034;-66
2022/12/23 01:28:26;;;;;;;;;;;;;;;;;;4993341;28;20026;-67
2022/12/23 01:30:52;;;;;;;30.08;12.40;;;;;;;;;;4993023;28;19914;-67
2022/12/23 01:33:17;;;;;;;27.55;13.88;;;;;;;;;;4992916;28;20022;-66
2022/12/23 01:35:42;;;;;;;27.48;14.07;;;;;;;;;;4992635;28;20437;-66
2022/12/23 01:38:08;;;;;;;29.20;13.60;;;;;;;;;;4992954;28;20030;-66
2022/12/23 01:40:35;;;;;;;26.77;13.35;;;;;;;;;;4992900;28;20114;-66
2022/12/23 01:43:00;;;;;;;30.38;13.38;;;;;;;;;;4992795;28;20031;-67
2022/12/23 01:45:30;;;;;;;25.92;13.18;;;;;;;;;;4992770;28;20029;-67
2022/12/23 01:48:08;;;;;;;33.13;14.50;;;;;;;;;;4992663;28;20477;-66
2022/12/23 01:50:37;;;;;;;28.85;13.80;;;;;;;;;;4992628;28;20033;-66
2022/12/23 01:53:10;;;;;;;25.08;13.68;;;;;;;;;;4992815;28;20036;-68
2022/12/23 01:55:56;;;;;;;28.90;12.48;;;;;;;;;;4976838;28;20212;-66
2022/12/23 01:58:32;;;;;;;26.77;12.75;;;;;;;;;;4992688;28;20110;-65
2022/12/23 02:03:43;;;;;;;27.90;12.90;;;;;;;;;;4993040;28;20029;-65
2022/12/23 02:09:16;;;;;;;29.30;13.90;;;;;;;;;;4992940;28;20049;-66
2022/12/23 02:12:06;;;;;;;29.70;15.10;;;;;;;;;;4992906;28;20030;-67
2022/12/23 02:17:31;;;;;;;34.35;14.88;;;;;;;;;;4996358;28;20040;-66
2022/12/23 02:20:05;;;;;;;27.13;14.13;;;;;;;;;;4995764;28;20034;-65
2022/12/23 02:22:52;;;;;;;34.33;14.77;;;;;;;;;;4994793;28;20177;-66
2022/12/23 02:26:02;;;;;;;30.70;13.82;;;;;;;;;;5001455;28;20489;-67
2022/12/23 02:28:46;;;;;;;32.15;14.10;;;;;;;;;;4974160;28;20046;-65
2022/12/23 02:31:17;;;;;;;25.52;12.20;;;;;;;;;;4996000;28;20038;-66
2022/12/23 02:33:57;;;;;;;26.65;13.13;;;;;;;;;;4995696;28;20386;-66
2022/12/23 02:36:45;;;;;;;28.50;14.75;;;;;;;;;;4995771;28;20125;-66
2022/12/23 02:39:18;;;;;;;28.73;13.93;;;;;;;;;;4995773;28;20038;-66
2022/12/23 02:41:46;;;;;;;27.67;13.60;;;;;;;;;;4995775;28;20037;-67
2022/12/23 02:44:43;;;;;;;26.40;13.18;;;;;;;;;;4995774;28;20030;-66
2022/12/23 02:47:11;;;;;;;28.30;13.30;;;;;;;;;;4976314;28;20105;-68
2022/12/23 02:49:41;;;;;;;28.55;14.13;;;;;;;;;;4976500;28;20390;-66
2022/12/23 02:52:12;;;;;;;26.63;13.02;;;;;;;;;;4995510;28;20050;-67
2022/12/23 02:55:07;;;;;;;30.95;14.45;;;;;;;;;;4995416;28;20034;-67
2022/12/23 02:57:37;;;;;;;27.60;13.35;;;;;;;;;;4988964;28;20062;-67
2022/12/23 03:00:04;;;;;;;30.20;13.73;;;;;;;;;;4979775;28;20050;-67
2022/12/23 03:02:36;;;;;;;29.65;13.23;;;;;;;;;;4995154;28;20485;-67
2022/12/23 03:05:02;;;;;;;28.20;12.85;;;;;;;;;;4995683;28;20022;-67
2022/12/23 03:07:36;;;;;;;25.85;12.98;;;;;;;;;;4995181;28;20374;-67
2022/12/23 03:10:27;;;;;;;26.05;12.63;;;;;;;;;;4995242;28;20030;-67
2022/12/23 03:12:52;;;;;;;;;;;;;;;;;;4995653;28;20057;-67
2022/12/23 03:15:36;;;;;;;29.27;12.70;;;;;;;;;;4995355;28;19914;-67
2022/12/23 03:18:30;;;;;;;32.15;14.48;;;;;;;;;;4995130;28;20034;-67
2022/12/23 03:21:11;;;;;;;37.28;15.07;;;;;;;;;;4935073;29;20078;-66
2022/12/23 03:23:40;;;;;;;33.22;13.98;;;;;;;;;;4934941;29;20035;-67
2022/12/23 03:26:17;;;;;;;37.53;16.30;;;;;;;;;;4937062;29;20111;-67
2022/12/23 03:28:53;;;;;;;38.17;16.15;;;;;;;;;;4935041;29;20043;-67
2022/12/23 03:31:23;;;;;;;36.72;15.70;;;;;;;;;;4934764;29;20519;-67
2022/12/23 03:33:56;;;;;;;35.53;16.98;;;;;;;;;;4934847;29;20110;-67
2022/12/23 03:36:25;;;;;;;40.58;17.58;;;;;;;;;;4934722;29;20043;-67
2022/12/23 03:38:53;;;;;;;43.40;19.13;;;;;;;;;;4934721;29;20063;-67
2022/12/23 03:41:27;;;;;;;42.67;17.75;;;;;;;;;;4934659;29;20032;-67
2022/12/23 03:44:01;;;;;;;33.13;14.27;;;;;;;;;;4934616;29;20059;-67
2022/12/23 03:47:05;;;;;;;27.33;13.00;;;;;;;;;;4934564;29;20227;-67
2022/12/23 03:49:36;;;;;;;24.75;12.38;;;;;;;;;;4934364;29;20047;-67
2022/12/23 03:52:10;;;;;;;32.50;13.18;;;;;;;;;;4934628;29;20036;-67
2022/12/23 03:54:43;;;;;;;28.60;13.93;;;;;;;;;;4934640;29;20027;-67
2022/12/23 03:57:09;;;;;;;29.25;13.27;;;;;;;;;;4943186;28;20035;-67
2022/12/23 03:59:42;;;;;;;33.17;12.93;;;;;;;;;;4994276;28;20053;-68
2022/12/23 04:02:37;;;;;;;28.13;12.98;;;;;;;;;;4994382;28;20029;-67
2022/12/23 04:05:02;;;;;;;27.23;12.85;;;;;;;;;;4980783;28;20441;-68
2022/12/23 04:07:35;;;;;;;25.15;12.50;;;;;;;;;;4993975;28;20023;-66
2022/12/23 04:10:03;;;;;;;27.27;12.38;;;;;;;;;;4994081;28;20033;-65
2022/12/23 04:12:29;;;;;;;26.58;13.48;;;;;;;;;;4994044;28;20052;-66
2022/12/23 04:14:55;;;;;;;32.45;13.63;;;;;;;;;;4992736;28;20035;-66
2022/12/23 04:17:21;;;;;;;28.95;13.80;;;;;;;;;;4994194;28;20032;-66
2022/12/23 04:19:47;;;;;;;28.02;13.70;;;;;;;;;;4994014;28;20050;-66
2022/12/23 04:22:14;;;;;;;28.00;12.35;;;;;;;;;;4993934;28;20029;-66
2022/12/23 04:24:40;;;;;;;29.30;13.27;;;;;;;;;;4993792;28;20460;-67
2022/12/23 04:27:08;;;;;;;34.63;15.57;;;;;;;;;;4993909;28;20034;-65
2022/12/23 04:29:34;;;;;;;35.67;15.70;;;;;;;;;;4993754;28;20046;-66
2022/12/23 04:31:59;;;;;;;42.35;18.27;;;;;;;;;;4993716;28;20033;-66
2022/12/23 04:34:24;;;;;;;50.55;23.33;;;;;;;;;;4992548;28;20168;-66
2022/12/23 04:36:50;;;;;;;48.28;23.98;;;;;;;;;;4993284;28;20109;-66
2022/12/23 04:39:15;;;;;;;54.33;27.25;;;;;;;;;;4993406;28;20105;-67
2022/12/23 04:41:40;;;;;;;56.55;27.00;;;;;;;;;;4993484;28;20040;-66
2022/12/23 04:44:06;;;;;;;55.42;26.42;;;;;;;;;;4993344;28;20480;-67
2022/12/23 04:46:31;;;;;;;52.80;24.80;;;;;;;;;;4993585;28;20041;-67
2022/12/23 04:48:57;;;;;;;47.65;23.20;;;;;;;;;;4993447;28;20026;-67
2022/12/23 04:51:22;;;;;;;55.17;24.88;;;;;;;;;;4993575;28;20113;-67
2022/12/23 04:53:48;;;;;;;49.10;23.38;;;;;;;;;;4993509;28;20109;-66
2022/12/23 04:56:13;;;;;;;48.22;22.20;;;;;;;;;;4993540;28;20105;-66
2022/12/23 04:58:39;;;;;;;45.30;22.25;;;;;;;;;;4993285;28;20061;-66
2022/12/23 05:01:07;;;;;;;44.35;21.13;;;;;;;;;;4993212;28;20080;-66
2022/12/23 05:03:33;;;;;;;42.70;20.73;;;;;;;;;;4993325;28;20101;-65
2022/12/23 05:05:58;;;;;;;37.63;19.50;;;;;;;;;;4993175;28;20061;-66
2022/12/23 05:08:24;;;;;;;38.30;18.65;;;;;;;;;;4993073;28;20027;-67
2022/12/23 05:10:49;;;;;;;33.83;18.20;;;;;;;;;;4993191;28;20085;-67
2022/12/23 05:13:15;;;;;;;37.15;19.55;;;;;;;;;;4993076;28;20086;-66
2022/12/23 05:15:45;;;;;;;35.78;17.92;;;;;;;;;;4993253;28;20109;-67
2022/12/23 05:18:11;;;;;;;33.53;17.85;;;;;;;;;;4993069;28;20390;-68
2022/12/23 05:20:36;;;;;;;37.75;17.35;;;;;;;;;;4992947;28;20095;-66
2022/12/23 05:23:02;;;;;;;31.25;16.35;;;;;;;;;;4993058;28;20030;-66
2022/12/23 05:25:27;;;;;;;29.42;14.93;;;;;;;;;;4999910;28;20053;-67
2022/12/23 05:27:52;;;;;;;34.08;15.50;;;;;;;;;;5001161;28;20073;-66
2022/12/23 05:30:18;;;;;;;31.65;14.45;;;;;;;;;;4993187;28;20489;-66
2022/12/23 05:32:43;;;;;;;31.33;14.82;;;;;;;;;;4993401;28;20488;-66
2022/12/23 05:35:09;;;;;;;30.45;15.65;;;;;;;;;;4992976;28;20110;-67
2022/12/23 05:37:35;;;;;;;33.83;16.02;;;;;;;;;;4993171;28;20307;-67
2022/12/23 05:40:00;;;;;;;35.38;16.17;;;;;;;;;;4992780;28;20105;-67
2022/12/23 05:42:26;;;;;;;32.08;14.90;;;;;;;;;;4992736;28;20041;-67
2022/12/23 05:44:51;;;;;;;34.42;16.05;;;;;;;;;;4992928;28;20426;-67
2022/12/23 05:47:17;;;;;;;35.72;15.10;;;;;;;;;;4991598;28;20375;-66
2022/12/23 05:49:42;;;;;;;31.67;15.77;;;;;;;;;;4994361;28;20117;-67
2022/12/23 05:52:07;;;;;;;36.22;16.73;;;;;;;;;;4995359;28;20075;-67
2022/12/23 05:54:33;;;;;;;34.90;16.38;;;;;;;;;;4996703;28;20109;-67
2022/12/23 05:56:58;;;;;;;32.17;16.40;;;;;;;;;;4996396;28;20061;-67
2022/12/23 05:59:24;;;;;;;33.40;15.60;;;;;;;;;;4996662;28;20018;-66
2022/12/23 06:01:49;;;;;;;33.33;15.93;;;;;;;;;;4996657;28;20026;-67
2022/12/23 06:04:14;;;;;;;32.95;16.33;;;;;;;;;;4996482;28;20054;-66
2022/12/23 06:06:40;;;;;;;33.95;16.25;;;;;;;;;;4995069;28;20031;-67
2022/12/23 06:09:05;;;;;;;34.50;16.75;;;;;;;;;;4996501;28;20027;-66
2022/12/23 06:11:31;;;;;;;34.92;16.20;;;;;;;;;;4996265;28;20109;-68
2022/12/23 06:13:56;;;;;;;36.00;17.42;;;;;;;;;;4996455;28;20045;-67
2022/12/23 06:16:22;;;;;;;38.38;16.35;;;;;;;;;;4996217;28;20022;-66
2022/12/23 06:18:47;;;;;;;35.70;18.27;;;;;;;;;;4996219;28;20174;-68
2022/12/23 06:21:13;;;;;;;37.03;17.67;;;;;;;;;;4996011;28;20125;-68
2022/12/23 06:23:38;;;;;;;36.20;18.45;;;;;;;;;;4995713;28;20101;-67
2022/12/23 06:26:04;;;;;;;34.95;17.75;;;;;;;;;;5006419;28;20073;-67
2022/12/23 06:28:29;;;;;;;38.58;17.15;;;;;;;;;;5007340;28;20034;-68
2022/12/23 06:30:56;;;;;;;33.78;16.88;;;;;;;;;;4996177;28;20023;-68
2022/12/23 06:33:22;;;;;;;37.72;17.67;;;;;;;;;;4996121;28;20109;-68
2022/12/23 06:35:48;;;;;;;51.05;21.70;;;;;;;;;;4995771;28;20026;-65
2022/12/23 06:38:14;;;;;;;61.13;23.10;;;;;;;;;;4996202;28;20445;-67
2022/12/23 06:40:39;;;;;;;47.55;20.90;;;;;;;;;;4995689;28;20474;-67
2022/12/23 06:43:05;;;;;;;42.67;18.60;;;;;;;;;;4995810;28;20386;-68
2022/12/23 06:45:30;;;;;;;42.88;18.10;;;;;;;;;;4995591;28;20034;-68
2022/12/23 06:47:56;;;;;;;35.67;15.85;;;;;;;;;;4995426;28;20473;-67
2022/12/23 06:50:21;;;;;;;30.42;14.80;;;;;;;;;;4995571;28;20545;-67
2022/12/23 06:52:47;;;;;;;38.42;16.38;;;;;;;;;;4995356;28;20035;-66
2022/12/23 06:55:13;;;;;;;34.40;15.90;;;;;;;;;;4995148;28;20532;-68
2022/12/23 06:57:39;;;;;;;30.00;14.13;;;;;;;;;;4995337;28;20030;-67
2022/12/23 07:00:05;;;;;;;31.58;15.35;;;;;;;;;;4995300;28;20099;-68
2022/12/23 07:02:30;;;;;;;29.42;14.50;;;;;;;;;;4995242;28;20032;-66
2022/12/23 07:04:56;;;;;;;31.95;13.93;;;;;;;;;;4994840;28;20097;-67
2022/12/23 07:07:21;;;;;;;29.02;13.98;;;;;;;;;;4995109;28;20022;-67
2022/12/23 07:09:47;;;;;;;29.63;14.20;;;;;;;;;;4994882;28;20474;-66
2022/12/23 07:12:12;;;;;;;30.02;13.73;;;;;;;;;;4995193;28;20382;-67
2022/12/23 07:14:37;;;;;;;28.50;13.75;;;;;;;;;;4995334;28;20027;-66
2022/12/23 07:17:03;;;;;;;30.02;13.63;;;;;;;;;;4995216;28;20493;-66
2022/12/23 07:19:28;;;;;;;30.83;14.15;;;;;;;;;;4995272;28;20470;-67
2022/12/23 07:21:54;;;;;;;30.77;14.13;;;;;;;;;;4995053;28;20033;-68
2022/12/23 07:24:19;;;;;;;31.95;15.30;;;;;;;;;;4994791;28;20046;-67
2022/12/23 07:26:45;;;;;;;31.80;14.50;;;;;;;;;;5012260;28;20030;-69
2022/12/23 07:29:10;;;;;;;31.40;14.75;;;;;;;;;;4995815;28;20034;-68
2022/12/23 07:31:36;;;;;;;31.77;15.25;;;;;;;;;;4995055;28;20461;-67
2022/12/23 07:34:01;;;;;;;31.33;14.98;;;;;;;;;;4995048;28;20030;-67
2022/12/23 07:36:26;;;;;;;31.35;15.68;;;;;;;;;;4994606;28;20026;-66
2022/12/23 07:38:52;;;;;;;31.65;15.75;;;;;;;;;;4994565;28;20373;-68
2022/12/23 07:41:18;;;;;;;31.80;15.00;;;;;;;;;;4994539;28;20027;-68
2022/12/23 07:43:43;;;;;;;32.53;15.00;;;;;;;;;;4994583;28;20022;-68
2022/12/23 07:46:09;;;;;;;36.38;16.15;;;;;;;;;;4994716;28;20025;-67
2022/12/23 07:48:35;;;;;;;31.15;15.68;;;;;;;;;;4994368;28;20474;-68
2022/12/23 07:51:03;;;;;;;34.28;16.38;;;;;;;;;;4994449;28;20365;-67
2022/12/23 07:53:29;;;;;;;31.98;15.32;;;;;;;;;;4994359;28;20027;-68
2022/12/23 07:55:55;;;;;;;45.78;23.40;;;;;;;;;;4994325;28;20424;-67
2022/12/23 07:58:21;;;;;;;65.30;28.38;;;;;;;;;;4994518;28;20061;-68
2022/12/23 08:00:46;;;;;;;54.83;30.63;;;;;;;;;;4994441;28;20066;-68
2022/12/23 08:03:12;;;;;;;56.65;30.08;;;;;;;;;;4994277;28;20033;-67
2022/12/23 08:05:37;;;;;;;46.17;23.30;;;;;;;;;;4992888;28;20030;-66
2022/12/23 08:08:03;;;;;;;43.35;19.85;;;;;;;;;;4985327;28;20078;-67
2022/12/23 08:10:29;;;;;;;38.38;17.63;;;;;;;;;;4992288;28;20470;-66
2022/12/23 08:12:54;;;;;;;36.95;18.38;;;;;;;;;;4993149;28;20466;-65
2022/12/23 08:15:20;;;;;;;31.70;15.05;;;;;;;;;;4993494;28;20027;-66
2022/12/23 08:17:45;;;;;;;32.42;16.15;;;;;;;;;;4993927;28;20038;-66
2022/12/23 08:20:11;;;;;;;34.67;16.75;;;;;;;;;;4991992;28;20031;-67
2022/12/23 08:22:36;;;;;;;29.58;14.95;;;;;;;;;;4993219;28;20505;-68
2022/12/23 08:25:03;;;;;;;28.90;13.55;;;;;;;;;;4996696;28;20132;-67
2022/12/23 08:27:28;;;;;;;30.67;15.27;;;;;;;;;;5013407;28;20030;-65
2022/12/23 08:29:53;;;;;;;29.85;14.65;;;;;;;;;;5013145;28;20080;-66
2022/12/23 08:32:19;;;;;;;30.35;14.85;;;;;;;;;;5013106;28;20030;-67
2022/12/23 08:34:44;;;;;;;33.53;16.48;;;;;;;;;;5013363;28;20030;-66
2022/12/23 08:37:10;;;;;;;32.75;15.98;;;;;;;;;;5012677;28;20036;-67
2022/12/23 08:39:35;;;;;;;32.97;17.08;;;;;;;;;;5013354;28;20033;-66
2022/12/23 08:42:01;;;;;;;36.17;17.92;;;;;;;;;;5008395;28;20025;-66
2022/12/23 08:44:26;;;;;;;35.70;17.98;;;;;;;;;;4993195;28;20254;-67
2022/12/23 08:46:54;;;;;;;33.15;17.08;;;;;;;;;;4993004;28;20022;-66
2022/12/23 08:49:20;;;;;;;29.02;14.82;;;;;;;;;;4993131;28;20050;-65
2022/12/23 08:51:46;;;;;;;31.88;14.63;;;;;;;;;;4993220;28;20022;-67
2022/12/23 08:54:11;;;;;;;31.00;14.20;;;;;;;;;;4992129;28;20029;-66
2022/12/23 08:56:40;;;;;;;90.97;39.45;;;;;;;;;;4993181;28;20037;-66
2022/12/23 08:59:06;;;;;;;137.57;70.20;;;;;;;;;;4993158;28;20027;-66
2022/12/23 09:01:33;;;;;;;81.85;41.95;;;;;;;;;;4993190;28;20022;-67
2022/12/23 09:04:04;;;;;;;103.20;53.22;;;;;;;;;;4993190;28;20030;-66
2022/12/23 09:06:33;;;;;;;98.70;50.17;;;;;;;;;;4993042;28;20421;-66
2022/12/23 09:08:59;;;;;;;74.18;40.63;;;;;;;;;;4973548;28;20081;-65
2022/12/23 09:11:26;;;;;;;67.40;39.90;;;;;;;;;;4973674;28;20034;-67
2022/12/23 09:13:52;;;;;;;46.33;27.98;;;;;;;;;;4973708;28;20035;-66
2022/12/23 09:16:17;;;;;;;50.17;25.65;;;;;;;;;;4973619;28;20033;-64
2022/12/23 09:18:43;;;;;;;58.22;31.58;;;;;;;;;;4973327;28;20038;-65
2022/12/23 09:21:20;;;;;;;61.95;33.17;;;;;;;;;;4973566;28;20032;-67
2022/12/23 09:23:46;;;;;;;59.00;26.50;;;;;;;;;;4973333;28;20073;-66
2022/12/23 09:26:19;;;;;;;44.85;20.63;;;;;;;;;;5003049;28;20456;-65
2022/12/23 09:28:44;;;;;;;38.05;17.10;;;;;;;;;;5016599;28;20087;-65
2022/12/23 09:31:11;;;;;;;39.30;17.98;;;;;;;;;;5015049;28;20029;-65
2022/12/23 09:33:37;;;;;;;35.13;16.40;;;;;;;;;;5016301;28;20389;-65
2022/12/23 09:36:03;;;;;;;43.92;19.05;;;;;;;;;;5016516;28;20030;-65
2022/12/23 09:38:29;;;;;;;29.85;15.02;;;;;;;;;;5016293;28;20382;-65
2022/12/23 09:41:02;;;;;;;31.83;14.52;;;;;;;;;;5016394;28;20029;-65
2022/12/23 09:43:27;;;;;;;33.20;14.77;;;;;;;;;;5016366;28;20037;-65
2022/12/23 09:46:05;;;;;;;28.75;14.40;;;;;;;;;;5016147;28;20033;-65
2022/12/23 09:48:39;;;;;;;42.72;17.40;;;;;;;;;;4996960;28;20129;-67
2022/12/23 09:51:05;;;;;;;42.65;19.27;;;;;;;;;;4996302;28;20088;-67
2022/12/23 09:54:08;;;;;;;33.95;16.80;;;;;;;;;;4996579;28;20029;-67
2022/12/23 09:56:50;;;;;;;41.03;19.45;;;;;;;;;;4996408;28;20034;-67
2022/12/23 09:59:27;;;;;;;44.38;21.48;;;;;;;;;;4996379;28;20034;-68
2022/12/23 10:01:58;;;;;;;50.22;21.95;;;;;;;;;;4996475;28;20041;-67
2022/12/23 10:04:30;;;;;;;39.92;19.13;;;;;;;;;;4996219;28;20057;-66
2022/12/23 10:07:16;;;;;;;43.67;19.17;;;;;;;;;;4996311;28;20035;-65
2022/12/23 10:09:44;;;;;;;36.40;17.60;;;;;;;;;;4996265;28;20030;-65
2022/12/23 10:12:25;;;;;;;57.15;22.63;;;;;;;;;;4996289;28;20611;-66
2022/12/23 10:14:54;;;;;;;37.28;17.42;;;;;;;;;;4996253;28;20030;-65
2022/12/23 10:17:36;;;;;;;52.38;20.98;;;;;;;;;;4995707;28;20513;-65
2022/12/23 10:20:04;;;;;;;56.75;20.55;;;;;;;;;;4981834;28;20022;-66
2022/12/23 10:22:43;;;;;;;28.92;16.27;;;;;;;;;;4995750;28;20041;-67
2022/12/23 10:25:21;;;;;;;31.13;13.93;;;;;;;;;;4999685;28;20512;-66
2022/12/23 10:27:47;;;;;;;23.40;12.75;;;;;;;;;;5015311;28;20120;-66
2022/12/23 10:30:20;;;;;;;24.00;13.10;;;;;;;;;;5011692;28;20511;-67
2022/12/23 10:32:59;;;;;;;30.52;13.00;;;;;;;;;;4995520;28;20018;-67
2022/12/23 10:35:55;;;;;;;57.65;21.98;;;;;;;;;;4995169;28;20030;-65
2022/12/23 10:38:42;;;;;;;37.88;18.67;;;;;;;;;;4995573;28;20018;-65
2022/12/23 10:41:26;;;;;;;37.88;18.27;;;;;;;;;;4995391;28;20385;-65
2022/12/23 10:44:21;;;;;;;31.08;16.27;;;;;;;;;;4995475;28;20034;-65
2022/12/23 10:47:10;;;;;;;32.72;15.82;;;;;;;;;;4994998;28;20124;-65
2022/12/23 10:50:07;;;;;;;28.77;14.15;;;;;;;;;;4995327;28;20061;-66
2022/12/23 10:52:36;;;;;;;32.47;16.23;;;;;;;;;;4995194;28;20026;-64
2022/12/23 10:55:03;;;;;;;37.35;17.27;;;;;;;;;;4995023;28;20104;-64
2022/12/23 10:57:29;;;;;;;35.90;16.25;;;;;;;;;;4995148;28;20449;-64
2022/12/23 10:59:55;;;;;;;30.23;14.10;;;;;;;;;;4995084;28;20027;-64
2022/12/23 11:02:36;;;;;;;33.70;15.15;;;;;;;;;;4995084;28;20026;-65
2022/12/23 11:05:01;;;;;;;29.70;13.93;;;;;;;;;;4994982;28;20385;-64
2022/12/23 11:07:28;;;;;;;32.95;14.75;;;;;;;;;;4994574;28;20030;-65
2022/12/23 11:10:03;;;;;;;30.35;13.10;;;;;;;;;;4994601;28;20463;-67
2022/12/23 11:12:44;;;;;;;29.73;14.60;;;;;;;;;;4994801;28;20038;-66
2022/12/23 11:15:39;;;;;;;28.00;13.85;;;;;;;;;;4994098;28;20482;-64
2022/12/23 11:18:11;;;;;;;42.65;17.63;;;;;;;;;;4966960;28;20046;-65
2022/12/23 11:20:38;;;;;;;32.88;14.60;;;;;;;;;;4975305;28;20038;-66
2022/12/23 11:23:13;;;;;;;36.10;15.90;;;;;;;;;;4975159;28;20057;-64
2022/12/23 11:25:41;;;;;;;37.63;16.42;;;;;;;;;;4992032;28;20050;-65
2022/12/23 11:28:09;;;;;;;47.58;20.02;;;;;;;;;;5000829;28;20462;-66
2022/12/23 11:30:49;;;;;;;38.67;15.93;;;;;;;;;;4994477;28;20061;-66
2022/12/23 11:33:29;;;;;;;47.00;18.50;;;;;;;;;;4994434;28;20504;-65
2022/12/23 11:36:13;;;;;;;;;;;;;;;;;;4994658;28;20113;-66
2022/12/23 11:38:56;;;;;;;46.83;18.75;;;;;;;;;;4980484;28;20292;-65
2022/12/23 11:41:28;;;;;;;62.40;19.73;;;;;;;;;;4994292;28;20026;-65
2022/12/23 11:44:24;;;;;;;67.32;22.10;;;;;;;;;;4993867;28;20029;-65
2022/12/23 11:46:50;;;;;;;49.30;18.27;;;;;;;;;;4973364;28;20054;-65
2022/12/23 11:49:22;;;;;;;39.90;17.85;;;;;;;;;;4974639;28;20034;-65
2022/12/23 11:52:02;;;;;;;51.92;19.80;;;;;;;;;;4988091;28;20030;-65
2022/12/23 11:54:28;;;;;;;42.40;17.73;;;;;;;;;;4994071;28;20026;-65
2022/12/23 11:56:54;;;;;;;37.72;17.08;;;;;;;;;;4994025;28;20041;-64
2022/12/23 11:59:28;;;;;;;36.78;16.15;;;;;;;;;;4992489;28;20937;-65
2022/12/23 12:01:56;;;;;;;32.30;15.38;;;;;;;;;;4994020;28;20383;-65
2022/12/23 12:04:24;;;;;;;32.40;16.05;;;;;;;;;;4993964;28;20153;-67
2022/12/23 12:06:51;;;;;;;32.22;15.32;;;;;;;;;;4994022;28;20441;-65
2022/12/23 12:09:16;;;;;;;39.83;16.08;;;;;;;;;;4993703;28;20109;-67
2022/12/23 12:11:55;;;;;;;40.80;17.15;;;;;;;;;;4993851;28;20490;-65
2022/12/23 12:14:32;;;;;;;33.45;14.55;;;;;;;;;;4992566;28;20062;-67
2022/12/23 12:17:16;;;;;;;38.58;15.70;;;;;;;;;;4988611;28;20034;-66
2022/12/23 12:20:13;;;;;;;36.78;15.13;;;;;;;;;;4991492;28;20022;-67
2022/12/23 12:23:11;;;;;;;36.05;16.38;;;;;;;;;;4993220;28;20179;-67
2022/12/23 12:25:47;;;;;;;40.83;16.88;;;;;;;;;;5000853;28;20045;-67
2022/12/23 12:28:27;;;;;;;44.38;17.75;;;;;;;;;;4997544;28;20049;-67
2022/12/23 12:31:04;;;;;;;47.25;23.40;;;;;;;;;;4993470;28;20026;-67
2022/12/23 12:33:39;;;;;;;45.35;19.33;;;;;;;;;;4993506;28;20061;-67
2022/12/23 12:36:42;;;;;;;38.88;18.55;;;;;;;;;;4993191;28;20034;-66
2022/12/23 12:39:17;;;;;;;37.83;16.70;;;;;;;;;;4993182;28;20026;-66
2022/12/23 12:41:51;;;;;;;45.17;18.92;;;;;;;;;;4990357;28;20030;-67
2022/12/23 12:44:22;;;;;;;36.58;16.25;;;;;;;;;;4992845;28;20049;-68
2022/12/23 12:46:57;;;;;;;43.63;19.40;;;;;;;;;;4993011;28;20084;-68
2022/12/23 12:49:37;;;;;;;37.67;18.42;;;;;;;;;;4992644;28;20053;-67
2022/12/23 12:52:12;;;;;;;39.42;16.55;;;;;;;;;;4992940;28;20037;-67
2022/12/23 12:55:12;;;;;;;40.13;16.27;;;;;;;;;;4992732;28;20366;-66
2022/12/23 12:57:39;;;;;;;37.50;16.92;;;;;;;;;;4932508;29;20036;-66
2022/12/23 13:00:19;;;;;;;39.83;15.90;;;;;;;;;;4932354;29;20446;-66
2022/12/23 13:03:14;;;;;;;36.72;16.48;;;;;;;;;;4932973;29;20032;-67
2022/12/23 13:05:58;;;;;;;31.58;13.68;;;;;;;;;;4931152;29;20059;-66
2022/12/23 13:08:39;;;;;;;37.45;15.63;;;;;;;;;;4932672;29;20043;-66
2022/12/23 13:11:10;;;;;;;;;;;;;;;;;;4933131;29;20035;-66
2022/12/23 13:13:44;;;;;;;42.42;17.10;;;;;;;;;;4933021;29;20390;-67
2022/12/23 13:16:27;;;;;;;50.72;17.67;;;;;;;;;;4932539;29;20093;-68
2022/12/23 13:18:53;;;;;;;42.15;15.57;;;;;;;;;;4932858;29;20038;-67
2022/12/23 13:21:30;;;;;;;40.50;17.05;;;;;;;;;;4932634;29;20043;-67
2022/12/23 13:24:06;;;;;;;36.60;16.33;;;;;;;;;;4932320;29;20060;-67
2022/12/23 13:26:38;;;;;;;41.65;18.25;;;;;;;;;;4942570;29;20406;-67
2022/12/23 13:29:36;;;;;;;39.05;16.88;;;;;;;;;;4932522;29;20067;-67
2022/12/23 13:32:29;;;;;;;36.55;13.73;;;;;;;;;;4933591;28;20111;-65
2022/12/23 13:35:27;;;;;;;36.58;15.57;;;;;;;;;;4992484;28;20063;-64
2022/12/23 13:37:58;;;;;;;36.40;15.00;;;;;;;;;;4992602;28;20034;-65
2022/12/23 13:40:40;;;;;;;41.03;18.60;;;;;;;;;;4977024;28;20101;-64
2022/12/23 13:43:14;;;;;;;38.33;17.63;;;;;;;;;;4990335;28;20405;-65
2022/12/23 13:45:41;;;;;;;34.53;14.95;;;;;;;;;;4992625;28;20106;-64
2022/12/23 13:48:46;;;;;;;34.05;15.48;;;;;;;;;;4992777;28;20023;-64
2022/12/23 13:51:19;;;;;;;38.08;16.20;;;;;;;;;;4992635;28;20485;-64
2022/12/23 13:53:48;;;;;;;49.67;19.90;;;;;;;;;;4992825;28;20034;-64
2022/12/23 13:56:21;;;;;;;42.00;17.25;;;;;;;;;;4992503;28;20030;-65
2022/12/23 13:58:48;;;;;;;33.25;15.85;;;;;;;;;;4992614;28;20093;-65
2022/12/23 14:01:13;;;;;;;28.13;13.30;;;;;;;;;;4992445;28;20393;-65
2022/12/23 14:03:39;;;;;;;34.25;15.70;;;;;;;;;;4992548;28;20023;-65
2022/12/23 14:06:23;;;;;;;34.47;14.95;;;;;;;;;;4992488;28;20117;-65
2022/12/23 14:08:50;;;;;;;26.98;12.82;;;;;;;;;;4980407;28;20026;-66
2022/12/23 14:11:22;;;;;;;28.63;11.32;;;;;;;;;;4994240;28;20084;-64
2022/12/23 14:13:53;;;;;;;22.33;11.68;;;;;;;;;;4995778;28;20477;-65
2022/12/23 14:16:34;;;;;;;24.10;11.13;;;;;;;;;;4996069;28;20026;-65
2022/12/23 14:19:27;;;;;;;23.73;11.57;;;;;;;;;;4994949;28;20030;-67
2022/12/23 14:22:14;;;;;;;53.42;22.38;;;;;;;;;;4993988;28;20034;-65
2022/12/23 14:25:20;;;;;;;75.30;31.02;;;;;;;;;;4994077;28;20054;-65
2022/12/23 14:28:26;;;;;;;66.97;31.50;;;;;;;;;;5013821;28;20037;-65
2022/12/23 14:30:52;;;;;;;46.30;21.10;;;;;;;;;;4972107;28;20461;-65
2022/12/23 14:33:17;;;;;;;44.92;18.35;;;;;;;;;;4972141;28;20050;-65
2022/12/23 14:35:44;;;;;;;54.08;18.30;;;;;;;;;;4972940;28;20058;-66
2022/12/23 14:38:24;;;;;;;52.20;16.27;;;;;;;;;;4972911;28;20030;-67
2022/12/23 14:40:52;;;;;;;26.52;11.95;;;;;;;;;;4972910;28;20035;-68
2022/12/23 14:43:20;;;;;;;41.63;14.13;;;;;;;;;;4971188;28;20557;-68
2022/12/23 14:45:47;;;;;;;36.00;13.15;;;;;;;;;;4971519;28;20043;-68
2022/12/23 14:48:34;;;;;;;24.73;11.23;;;;;;;;;;4971498;28;20063;-68
2022/12/23 14:51:23;;;;;;;23.98;10.98;;;;;;;;;;4971166;28;20125;-65
2022/12/23 14:53:51;;;;;;;21.95;11.38;;;;;;;;;;4970743;28;20039;-67
2022/12/23 14:56:31;;;;;;;21.42;11.30;;;;;;;;;;4972303;28;20026;-66
2022/12/23 14:59:14;;;;;;;24.13;11.10;;;;;;;;;;4973756;28;20027;-67
2022/12/23 15:01:45;;;;;;;26.50;11.90;;;;;;;;;;4973555;28;20435;-67
2022/12/23 15:04:44;;;;;;;24.50;12.27;;;;;;;;;;4973510;28;20030;-67
2022/12/23 15:07:20;;;;;;;29.25;12.15;;;;;;;;;;4994637;28;20045;-67